createdAt,value
2017-11-07T00:00:25.745Z,8.70
2017-11-07T00:01:25.740Z,8.10
2017-11-07T00:02:25.736Z,8.80
2017-11-07T00:03:25.731Z,8.10
2017-11-07T00:04:25.726Z,8.10
2017-11-07T00:05:25.721Z,7.70
2017-11-07T00:06:25.716Z,8.80
2017-11-07T00:07:25.711Z,8.40
2017-11-07T00:08:25.756Z,8.50
2017-11-07T00:09:25.702Z,8.30
2017-11-07T00:10:25.698Z,8.40
2017-11-07T00:11:25.692Z,7.10
2017-11-07T00:12:25.687Z,7.70
2017-11-07T00:13:25.681Z,7.20
2017-11-07T00:14:25.676Z,7.60
2017-11-07T00:15:25.674Z,7.20
2017-11-07T00:16:25.667Z,7.60
2017-11-07T00:17:25.662Z,7.30
2017-11-07T00:18:25.657Z,7.30
2017-11-07T00:19:25.659Z,7.70
2017-11-07T00:20:25.647Z,7.30
2017-11-07T00:21:25.641Z,7.50
2017-11-07T00:22:25.639Z,7.90
2017-11-07T00:23:25.631Z,7.70
2017-11-07T00:24:25.627Z,7.70
2017-11-07T00:25:25.623Z,7.40
2017-11-07T00:26:25.618Z,7.30
2017-11-07T00:27:25.610Z,7.70
2017-11-07T00:28:25.606Z,6.30
2017-11-07T00:29:25.601Z,6.90
2017-11-07T00:30:25.597Z,7.80
2017-11-07T00:31:25.590Z,7.30
2017-11-07T00:32:25.590Z,7.20
2017-11-07T00:33:25.581Z,7.50
2017-11-07T00:34:25.576Z,7.90
2017-11-07T00:35:25.571Z,7.90
2017-11-07T00:36:25.567Z,7.70
2017-11-07T00:37:25.561Z,6.40
2017-11-07T00:38:25.556Z,6.80
2017-11-07T00:39:25.551Z,7.00
2017-11-07T00:40:25.545Z,6.50
2017-11-07T00:41:25.541Z,7.00
2017-11-07T00:42:25.536Z,6.90
2017-11-07T00:43:25.530Z,6.50
2017-11-07T00:44:25.526Z,6.60
2017-11-07T00:45:25.521Z,6.30
2017-11-07T00:46:25.517Z,6.90
2017-11-07T00:47:25.511Z,7.10
2017-11-07T00:48:25.505Z,6.00
2017-11-07T00:49:25.500Z,6.60
2017-11-07T00:50:25.496Z,5.90
2017-11-07T00:51:25.490Z,6.00
2017-11-07T00:52:25.485Z,6.30
2017-11-07T00:53:25.480Z,6.10
2017-11-07T00:54:25.476Z,6.40
2017-11-07T00:55:25.469Z,5.90
2017-11-07T00:56:25.465Z,5.40
2017-11-07T00:57:25.460Z,5.60
2017-11-07T00:58:25.456Z,6.00
2017-11-07T00:59:25.450Z,5.10
2017-11-07T01:00:25.444Z,5.90
2017-11-07T01:01:25.440Z,5.90
2017-11-07T01:02:25.436Z,5.00
2017-11-07T01:03:25.429Z,5.50
2017-11-07T01:04:25.426Z,5.30
2017-11-07T01:05:25.421Z,5.70
2017-11-07T01:06:25.417Z,5.60
2017-11-07T01:07:25.409Z,6.20
2017-11-07T01:08:25.406Z,4.90
2017-11-07T01:09:25.400Z,5.50
2017-11-07T01:10:25.396Z,5.50
2017-11-07T01:11:25.439Z,5.80
2017-11-07T01:12:25.384Z,5.70
2017-11-07T01:13:25.380Z,5.30
2017-11-07T01:14:25.374Z,5.60
2017-11-07T01:15:25.369Z,5.80
2017-11-07T01:16:25.365Z,6.80
2017-11-07T01:17:25.360Z,5.40
2017-11-07T01:18:25.354Z,6.10
2017-11-07T01:19:25.350Z,5.90
2017-11-07T01:20:25.344Z,5.90
2017-11-07T01:21:25.341Z,5.80
2017-11-07T01:22:25.335Z,5.60
2017-11-07T01:23:25.330Z,5.30
2017-11-07T01:24:25.325Z,5.70
2017-11-07T01:25:25.320Z,5.20
2017-11-07T01:26:25.316Z,5.90
2017-11-07T01:27:25.310Z,6.10
2017-11-07T01:28:25.304Z,5.50
2017-11-07T01:29:25.300Z,5.50
2017-11-07T01:30:25.295Z,5.20
2017-11-07T01:31:25.297Z,5.40
2017-11-07T01:32:25.286Z,4.90
2017-11-07T01:33:25.281Z,5.20
2017-11-07T01:34:25.277Z,6.00
2017-11-07T01:35:25.271Z,5.70
2017-11-07T01:36:25.265Z,5.90
2017-11-07T01:37:25.262Z,6.40
2017-11-07T01:38:25.258Z,8.40
2017-11-07T01:39:25.256Z,8.40
2017-11-07T01:40:25.245Z,9.00
2017-11-07T01:41:25.240Z,8.40
2017-11-07T01:42:25.286Z,6.50
2017-11-07T01:43:25.229Z,6.60
2017-11-07T01:44:25.227Z,6.30
2017-11-07T01:45:25.222Z,6.30
2017-11-07T01:46:25.216Z,5.40
2017-11-07T01:47:25.210Z,6.00
2017-11-07T01:48:25.209Z,4.90
2017-11-07T01:49:25.205Z,4.90
2017-11-07T01:50:25.197Z,4.50
2017-11-07T01:51:25.242Z,5.00
2017-11-07T01:52:25.192Z,5.10
2017-11-07T01:53:25.181Z,4.90
2017-11-07T01:54:25.179Z,4.80
2017-11-07T01:55:25.182Z,5.30
2017-11-07T01:56:25.166Z,5.50
2017-11-07T01:57:25.161Z,4.70
2017-11-07T01:58:25.157Z,4.70
2017-11-07T01:59:25.151Z,4.80
2017-11-07T02:00:25.149Z,4.40
2017-11-07T02:01:25.142Z,4.60
2017-11-07T02:02:25.139Z,4.90
2017-11-07T02:03:25.133Z,5.40
2017-11-07T02:04:25.128Z,4.50
2017-11-07T02:05:25.123Z,4.60
2017-11-07T02:06:25.117Z,4.90
2017-11-07T02:07:25.112Z,4.80
2017-11-07T02:08:25.108Z,5.30
2017-11-07T02:09:25.103Z,4.70
2017-11-07T02:10:25.100Z,5.80
2017-11-07T02:11:25.093Z,8.70
2017-11-07T02:12:25.089Z,8.90
2017-11-07T02:13:25.083Z,8.60
2017-11-07T02:14:25.078Z,9.70
2017-11-07T02:15:25.126Z,10.30
2017-11-07T02:16:25.069Z,9.90
2017-11-07T02:17:25.064Z,11.60
2017-11-07T02:18:25.059Z,10.70
2017-11-07T02:19:25.054Z,9.20
2017-11-07T02:20:25.049Z,10.30
2017-11-07T02:21:25.045Z,9.70
2017-11-07T02:22:25.040Z,10.20
2017-11-07T02:23:25.034Z,10.10
2017-11-07T02:24:25.030Z,10.40
2017-11-07T02:25:25.027Z,10.70
2017-11-07T02:26:25.023Z,10.00
2017-11-07T02:27:25.017Z,8.40
2017-11-07T02:28:25.012Z,8.70
2017-11-07T02:29:25.008Z,9.00
2017-11-07T02:30:25.002Z,9.50
2017-11-07T02:31:24.998Z,7.00
2017-11-07T02:32:24.994Z,7.60
2017-11-07T02:33:24.989Z,7.60
2017-11-07T02:34:24.984Z,8.30
2017-11-07T02:35:24.978Z,8.70
2017-11-07T02:36:24.973Z,8.30
2017-11-07T02:37:24.970Z,8.90
2017-11-07T02:38:24.965Z,8.90
2017-11-07T02:39:24.959Z,7.50
2017-11-07T02:40:24.956Z,8.10
2017-11-07T02:41:24.953Z,7.30
2017-11-07T02:42:24.946Z,7.30
2017-11-07T02:43:24.940Z,7.40
2017-11-07T02:44:24.934Z,7.00
2017-11-07T02:45:24.932Z,7.80
2017-11-07T02:46:24.928Z,7.20
2017-11-07T02:47:24.922Z,7.00
2017-11-07T02:48:24.917Z,7.80
2017-11-07T02:49:24.913Z,8.10
2017-11-07T02:50:24.910Z,8.60
2017-11-07T02:51:24.903Z,9.30
2017-11-07T02:52:24.907Z,9.40
2017-11-07T02:53:24.899Z,9.20
2017-11-07T02:54:24.899Z,9.60
2017-11-07T02:55:24.885Z,8.00
2017-11-07T02:56:24.881Z,8.00
2017-11-07T02:57:24.877Z,8.50
2017-11-07T02:58:24.872Z,8.50
2017-11-07T02:59:24.868Z,9.30
2017-11-07T03:00:24.863Z,9.20
2017-11-07T03:01:24.858Z,9.80
2017-11-07T03:02:24.855Z,9.80
2017-11-07T03:03:24.853Z,8.70
2017-11-07T03:04:24.844Z,8.70
2017-11-07T03:05:24.889Z,8.80
2017-11-07T03:06:24.833Z,8.80
2017-11-07T03:07:24.831Z,8.40
2017-11-07T03:08:24.825Z,8.20
2017-11-07T03:09:24.821Z,9.50
2017-11-07T03:10:24.817Z,9.00
2017-11-07T03:11:24.811Z,8.80
2017-11-07T03:12:24.807Z,8.80
2017-11-07T03:13:24.803Z,8.60
2017-11-07T03:14:24.799Z,8.40
2017-11-07T03:15:24.792Z,8.70
2017-11-07T03:16:24.787Z,9.10
2017-11-07T03:17:24.783Z,8.80
2017-11-07T03:18:24.779Z,9.10
2017-11-07T03:19:24.774Z,9.10
2017-11-07T03:20:24.769Z,9.60
2017-11-07T03:21:24.764Z,8.80
2017-11-07T03:22:24.760Z,9.70
2017-11-07T03:23:24.760Z,9.00
2017-11-07T03:24:24.750Z,8.70
2017-11-07T03:25:24.747Z,8.80
2017-11-07T03:26:24.743Z,9.40
2017-11-07T03:27:24.737Z,10.60
2017-11-07T03:28:24.731Z,9.30
2017-11-07T03:29:24.727Z,9.00
2017-11-07T03:30:24.725Z,10.10
2017-11-07T03:31:24.717Z,9.00
2017-11-07T03:32:24.764Z,8.90
2017-11-07T03:33:24.712Z,9.50
2017-11-07T03:34:24.705Z,10.70
2017-11-07T03:35:24.699Z,9.00
2017-11-07T03:36:24.745Z,9.10
2017-11-07T03:37:24.689Z,9.00
2017-11-07T03:38:24.686Z,9.80
2017-11-07T03:39:24.681Z,9.40
2017-11-07T03:40:24.677Z,9.40
2017-11-07T03:41:24.675Z,9.10
2017-11-07T03:42:24.667Z,8.20
2017-11-07T03:43:24.661Z,7.90
2017-11-07T03:44:24.657Z,7.70
2017-11-07T03:45:24.654Z,8.10
2017-11-07T03:46:24.699Z,8.10
2017-11-07T03:47:24.643Z,8.30
2017-11-07T03:48:24.639Z,8.20
2017-11-07T03:49:24.648Z,8.40
2017-11-07T03:50:24.630Z,8.20
2017-11-07T03:51:24.626Z,8.70
2017-11-07T03:52:24.620Z,8.90
2017-11-07T03:53:24.616Z,8.20
2017-11-07T03:54:24.612Z,9.00
2017-11-07T03:55:24.607Z,9.20
2017-11-07T03:56:24.602Z,9.00
2017-11-07T03:57:24.597Z,9.50
2017-11-07T03:58:24.599Z,8.90
2017-11-07T03:59:24.587Z,9.50
2017-11-07T04:00:24.601Z,8.90
2017-11-07T04:01:24.578Z,8.60
2017-11-07T04:02:24.574Z,9.40
2017-11-07T04:03:24.568Z,10.10
2017-11-07T04:04:24.565Z,10.00
2017-11-07T04:05:24.560Z,10.50
2017-11-07T04:06:24.557Z,11.80
2017-11-07T04:07:24.555Z,11.90
2017-11-07T04:08:24.546Z,11.60
2017-11-07T04:09:24.542Z,11.90
2017-11-07T04:10:24.537Z,12.30
2017-11-07T04:11:24.531Z,12.10
2017-11-07T04:12:24.525Z,11.90
2017-11-07T04:13:24.522Z,12.40
2017-11-07T04:14:24.517Z,12.50
2017-11-07T04:15:24.512Z,12.40
2017-11-07T04:16:24.507Z,12.20
2017-11-07T04:17:24.503Z,11.90
2017-11-07T04:18:24.498Z,13.40
2017-11-07T04:19:24.494Z,11.10
2017-11-07T04:20:24.489Z,12.30
2017-11-07T04:21:24.484Z,12.80
2017-11-07T04:22:24.479Z,12.40
2017-11-07T04:23:24.474Z,12.60
2017-11-07T04:24:24.470Z,12.30
2017-11-07T04:25:24.468Z,12.60
2017-11-07T04:26:24.517Z,11.50
2017-11-07T04:27:24.457Z,11.90
2017-11-07T04:28:24.451Z,12.00
2017-11-07T04:29:24.449Z,10.80
2017-11-07T04:30:24.443Z,12.30
2017-11-07T04:31:24.438Z,12.20
2017-11-07T04:32:24.434Z,12.50
2017-11-07T04:33:24.429Z,11.60
2017-11-07T04:34:24.423Z,11.60
2017-11-07T04:35:24.419Z,11.60
2017-11-07T04:36:24.425Z,11.40
2017-11-07T04:37:24.411Z,11.80
2017-11-07T04:38:24.407Z,10.20
2017-11-07T04:39:24.403Z,10.20
2017-11-07T04:40:24.398Z,9.60
2017-11-07T04:41:24.393Z,10.00
2017-11-07T04:42:24.389Z,9.00
2017-11-07T04:43:24.383Z,10.00
2017-11-07T04:44:24.380Z,10.30
2017-11-07T04:45:24.381Z,10.20
2017-11-07T04:46:24.370Z,8.00
2017-11-07T04:47:24.365Z,8.10
2017-11-07T04:48:24.361Z,9.50
2017-11-07T04:49:24.358Z,8.50
2017-11-07T04:50:24.353Z,9.10
2017-11-07T04:51:24.349Z,7.50
2017-11-07T04:52:24.343Z,7.60
2017-11-07T04:53:24.340Z,8.70
2017-11-07T04:54:24.334Z,10.60
2017-11-07T04:55:24.329Z,10.30
2017-11-07T04:56:24.326Z,10.50
2017-11-07T04:57:24.321Z,12.50
2017-11-07T04:58:24.317Z,16.20
2017-11-07T04:59:24.311Z,17.20
2017-11-07T05:00:24.307Z,15.30
2017-11-07T05:01:24.303Z,14.60
2017-11-07T05:02:24.298Z,13.70
2017-11-07T05:03:24.293Z,14.40
2017-11-07T05:04:24.288Z,14.30
2017-11-07T05:05:24.284Z,15.00
2017-11-07T05:06:24.281Z,15.50
2017-11-07T05:07:24.277Z,14.30
2017-11-07T05:08:24.272Z,14.20
2017-11-07T05:09:24.267Z,13.30
2017-11-07T05:10:24.262Z,14.40
2017-11-07T05:11:24.259Z,14.10
2017-11-07T05:12:24.257Z,15.40
2017-11-07T05:13:24.249Z,13.70
2017-11-07T05:14:24.294Z,14.00
2017-11-07T05:15:24.238Z,13.00
2017-11-07T05:16:24.235Z,13.60
2017-11-07T05:17:24.230Z,13.10
2017-11-07T05:18:24.227Z,13.60
2017-11-07T05:19:24.222Z,14.00
2017-11-07T05:20:24.218Z,13.10
2017-11-07T05:21:24.213Z,15.70
2017-11-07T05:22:24.211Z,14.50
2017-11-07T05:23:24.203Z,14.30
2017-11-07T05:24:24.199Z,14.80
2017-11-07T05:25:24.196Z,14.60
2017-11-07T05:26:24.491Z,14.90
2017-11-07T05:27:24.185Z,15.90
2017-11-07T05:28:24.181Z,15.40
2017-11-07T05:29:24.177Z,16.00
2017-11-07T05:30:24.174Z,15.30
2017-11-07T05:31:24.168Z,14.90
2017-11-07T05:32:24.163Z,14.50
2017-11-07T05:33:24.159Z,14.00
2017-11-07T05:34:24.154Z,13.60
2017-11-07T05:35:24.150Z,14.00
2017-11-07T05:36:24.146Z,16.70
2017-11-07T05:37:24.143Z,17.10
2017-11-07T05:38:24.137Z,16.30
2017-11-07T05:39:24.132Z,14.00
2017-11-07T05:40:24.129Z,15.20
2017-11-07T05:41:24.123Z,13.60
2017-11-07T05:42:24.119Z,14.40
2017-11-07T05:43:24.114Z,14.70
2017-11-07T05:44:24.110Z,14.20
2017-11-07T05:45:24.109Z,13.60
2017-11-07T05:46:24.103Z,12.70
2017-11-07T05:47:24.096Z,14.20
2017-11-07T05:48:24.098Z,14.00
2017-11-07T05:49:24.098Z,12.90
2017-11-07T05:50:24.083Z,14.20
2017-11-07T05:51:24.078Z,14.30
2017-11-07T05:52:24.081Z,13.80
2017-11-07T05:53:24.071Z,15.20
2017-11-07T05:54:24.066Z,14.30
2017-11-07T05:55:24.060Z,14.00
2017-11-07T05:56:24.058Z,13.40
2017-11-07T05:57:24.054Z,13.70
2017-11-07T05:58:24.049Z,13.90
2017-11-07T05:59:24.044Z,14.10
2017-11-07T06:00:24.040Z,14.30
2017-11-07T06:01:24.036Z,14.10
2017-11-07T06:02:24.031Z,14.90
2017-11-07T06:03:24.026Z,14.20
2017-11-07T06:04:24.022Z,14.70
2017-11-07T06:05:24.018Z,14.60
2017-11-07T06:06:24.020Z,14.10
2017-11-07T06:07:24.008Z,14.00
2017-11-07T06:08:24.006Z,14.10
2017-11-07T06:09:24.000Z,14.40
2017-11-07T06:10:23.995Z,14.50
2017-11-07T06:11:23.991Z,13.50
2017-11-07T06:12:23.987Z,14.70
2017-11-07T06:13:23.984Z,16.00
2017-11-07T06:14:23.978Z,16.40
2017-11-07T06:15:23.973Z,16.20
2017-11-07T06:16:23.973Z,15.50
2017-11-07T06:17:23.966Z,14.50
2017-11-07T06:18:23.961Z,18.00
2017-11-07T06:19:23.955Z,15.70
2017-11-07T06:20:23.952Z,15.10
2017-11-07T06:21:23.953Z,14.60
2017-11-07T06:22:23.941Z,15.10
2017-11-07T06:23:23.938Z,15.10
2017-11-07T06:24:23.934Z,14.50
2017-11-07T06:25:23.933Z,15.00
2017-11-07T06:26:23.926Z,13.60
2017-11-07T06:27:23.919Z,14.30
2017-11-07T06:28:23.916Z,13.30
2017-11-07T06:29:23.920Z,14.60
2017-11-07T06:30:23.958Z,13.30
2017-11-07T06:31:23.903Z,13.40
2017-11-07T06:32:23.898Z,14.80
2017-11-07T06:33:23.894Z,14.80
2017-11-07T06:34:23.891Z,14.30
2017-11-07T06:35:23.884Z,14.90
2017-11-07T06:36:23.882Z,13.40
2017-11-07T06:37:23.876Z,13.60
2017-11-07T06:38:23.874Z,13.30
2017-11-07T06:39:23.869Z,13.70
2017-11-07T06:40:23.862Z,13.70
2017-11-07T06:41:23.859Z,13.90
2017-11-07T06:42:23.856Z,13.50
2017-11-07T06:43:23.850Z,13.30
2017-11-07T06:44:23.846Z,14.10
2017-11-07T06:45:23.842Z,14.30
2017-11-07T06:46:23.845Z,13.60
2017-11-07T06:47:23.833Z,13.10
2017-11-07T06:48:23.832Z,11.70
2017-11-07T06:49:23.824Z,11.80
2017-11-07T06:50:23.820Z,12.30
2017-11-07T06:51:23.815Z,11.50
2017-11-07T06:52:23.810Z,11.90
2017-11-07T06:53:23.812Z,11.70
2017-11-07T06:54:23.803Z,11.90
2017-11-07T06:55:23.798Z,11.50
2017-11-07T06:56:23.794Z,10.60
2017-11-07T06:57:23.842Z,11.60
2017-11-07T06:58:23.785Z,10.90
2017-11-07T06:59:23.780Z,11.20
2017-11-07T07:00:23.776Z,11.00
2017-11-07T07:01:23.776Z,11.80
2017-11-07T07:02:23.768Z,12.50
2017-11-07T07:03:23.813Z,13.50
2017-11-07T07:04:23.759Z,12.50
2017-11-07T07:05:23.755Z,12.20
2017-11-07T07:06:23.756Z,11.50
2017-11-07T07:07:23.753Z,11.60
2017-11-07T07:08:23.742Z,12.20
2017-11-07T07:09:23.737Z,12.50
2017-11-07T07:10:23.735Z,10.80
2017-11-07T07:11:23.736Z,11.90
2017-11-07T07:12:23.775Z,12.90
2017-11-07T07:13:23.720Z,13.40
2017-11-07T07:14:23.720Z,13.10
2017-11-07T07:15:23.711Z,13.00
2017-11-07T07:16:23.708Z,14.20
2017-11-07T07:17:23.703Z,14.70
2017-11-07T07:18:23.700Z,14.10
2017-11-07T07:19:23.693Z,13.00
2017-11-07T07:20:23.691Z,13.00
2017-11-07T07:21:23.686Z,12.90
2017-11-07T07:22:23.733Z,12.70
2017-11-07T07:23:23.677Z,12.80
2017-11-07T07:24:23.673Z,14.10
2017-11-07T07:25:23.669Z,16.10
2017-11-07T07:26:23.665Z,13.10
2017-11-07T07:27:23.659Z,13.70
2017-11-07T07:28:23.659Z,12.20
2017-11-07T07:29:23.652Z,11.60
2017-11-07T07:30:23.650Z,12.70
2017-11-07T07:31:23.643Z,12.40
2017-11-07T07:32:23.640Z,13.00
2017-11-07T07:33:23.635Z,13.10
2017-11-07T07:34:23.631Z,13.00
2017-11-07T07:35:23.627Z,14.00
2017-11-07T07:36:23.624Z,14.10
2017-11-07T07:37:23.625Z,13.90
2017-11-07T07:38:23.618Z,15.30
2017-11-07T07:39:23.611Z,15.30
2017-11-07T07:40:23.607Z,15.10
2017-11-07T07:41:23.602Z,15.60
2017-11-07T07:42:23.600Z,14.20
2017-11-07T07:43:23.593Z,14.70
2017-11-07T07:44:23.590Z,13.70
2017-11-07T07:45:23.585Z,16.30
2017-11-07T07:46:23.581Z,15.30
2017-11-07T07:47:23.577Z,13.80
2017-11-07T07:48:23.574Z,13.40
2017-11-07T07:49:23.569Z,13.70
2017-11-07T07:50:23.565Z,16.30
2017-11-07T07:51:23.559Z,14.80
2017-11-07T07:52:23.560Z,11.90
2017-11-07T07:53:23.553Z,12.00
2017-11-07T07:54:23.550Z,12.50
2017-11-07T07:55:23.546Z,13.00
2017-11-07T07:56:23.540Z,13.10
2017-11-07T07:57:23.536Z,12.60
2017-11-07T07:58:23.532Z,12.80
2017-11-07T07:59:23.526Z,13.10
2017-11-07T08:00:23.530Z,12.50
2017-11-07T08:01:23.525Z,12.80
2017-11-07T08:02:23.516Z,14.20
2017-11-07T08:03:23.512Z,12.50
2017-11-07T08:04:23.507Z,12.90
2017-11-07T08:05:23.507Z,12.00
2017-11-07T08:06:23.500Z,13.20
2017-11-07T08:07:23.496Z,13.40
2017-11-07T08:08:23.556Z,13.80
2017-11-07T08:09:23.538Z,12.20
2017-11-07T08:10:23.484Z,12.20
2017-11-07T08:11:23.479Z,11.50
2017-11-07T08:12:23.476Z,10.60
2017-11-07T08:13:23.471Z,11.40
2017-11-07T08:14:23.468Z,11.90
2017-11-07T08:15:23.463Z,12.00
2017-11-07T08:16:23.460Z,12.20
2017-11-07T08:17:23.454Z,11.60
2017-11-07T08:18:23.451Z,13.40
2017-11-07T08:19:23.448Z,12.90
2017-11-07T08:20:23.444Z,13.60
2017-11-07T08:21:23.439Z,16.50
2017-11-07T08:22:23.435Z,15.10
2017-11-07T08:23:23.430Z,15.20
2017-11-07T08:24:23.427Z,13.50
2017-11-07T08:25:23.422Z,12.20
2017-11-07T08:26:23.418Z,11.90
2017-11-07T08:27:23.413Z,12.20
2017-11-07T08:28:23.410Z,12.30
2017-11-07T08:29:23.406Z,11.20
2017-11-07T08:30:23.405Z,12.30
2017-11-07T08:31:23.397Z,12.30
2017-11-07T08:32:23.393Z,11.80
2017-11-07T08:33:23.440Z,12.90
2017-11-07T08:34:23.386Z,11.00
2017-11-07T08:35:23.382Z,11.30
2017-11-07T08:36:23.379Z,11.90
2017-11-07T08:37:23.374Z,11.50
2017-11-07T08:38:23.374Z,11.80
2017-11-07T08:39:23.366Z,11.30
2017-11-07T08:40:23.362Z,12.20
2017-11-07T08:41:23.369Z,11.90
2017-11-07T08:42:23.455Z,12.00
2017-11-07T08:43:23.349Z,12.10
2017-11-07T08:44:23.346Z,12.70
2017-11-07T08:45:23.343Z,12.30
2017-11-07T08:46:23.338Z,12.20
2017-11-07T08:47:23.334Z,11.20
2017-11-07T08:48:23.331Z,11.10
2017-11-07T08:49:23.329Z,10.20
2017-11-07T08:50:23.324Z,10.90
2017-11-07T08:51:23.320Z,10.70
2017-11-07T08:52:23.317Z,10.10
2017-11-07T08:53:23.313Z,10.00
2017-11-07T08:54:23.312Z,10.90
2017-11-07T08:55:23.306Z,9.70
2017-11-07T08:56:23.304Z,9.40
2017-11-07T08:57:23.304Z,9.80
2017-11-07T08:58:23.297Z,10.70
2017-11-07T08:59:23.292Z,8.90
2017-11-07T09:00:23.308Z,9.60
2017-11-07T09:01:23.287Z,10.80
2017-11-07T09:02:23.285Z,12.10
2017-11-07T09:03:23.281Z,18.40
2017-11-07T09:04:23.283Z,11.60
2017-11-07T09:05:23.274Z,9.50
2017-11-07T09:06:23.272Z,10.30
2017-11-07T09:07:23.319Z,8.50
2017-11-07T09:08:23.265Z,8.50
2017-11-07T09:09:23.263Z,8.70
2017-11-07T09:10:23.259Z,9.80
2017-11-07T09:11:23.258Z,9.60
2017-11-07T09:12:23.254Z,10.20
2017-11-07T09:13:23.252Z,7.80
2017-11-07T09:14:23.250Z,7.10
2017-11-07T09:15:23.246Z,7.10
2017-11-07T09:16:23.243Z,10.20
2017-11-07T09:17:23.245Z,7.70
2017-11-07T09:18:23.239Z,10.20
2017-11-07T09:19:23.241Z,9.00
2017-11-07T09:20:23.233Z,7.80
2017-11-07T09:21:23.230Z,9.50
2017-11-07T09:22:23.228Z,7.90
2017-11-07T09:23:23.225Z,9.10
2017-11-07T09:24:23.222Z,10.80
2017-11-07T09:25:23.220Z,13.20
2017-11-07T09:26:23.216Z,7.50
2017-11-07T09:27:23.215Z,13.60
2017-11-07T09:28:23.211Z,10.60
2017-11-07T09:29:23.208Z,7.40
2017-11-07T09:30:23.206Z,7.00
2017-11-07T09:31:23.203Z,7.70
2017-11-07T09:32:23.200Z,6.40
2017-11-07T09:33:23.198Z,7.30
2017-11-07T09:34:23.195Z,6.40
2017-11-07T09:35:23.191Z,7.20
2017-11-07T09:36:23.190Z,6.90
2017-11-07T09:37:23.187Z,6.20
2017-11-07T09:38:23.184Z,6.50
2017-11-07T09:39:23.187Z,6.80
2017-11-07T09:40:23.178Z,6.80
2017-11-07T09:41:23.225Z,7.20
2017-11-07T09:42:23.173Z,6.80
2017-11-07T09:43:23.169Z,7.50
2017-11-07T09:44:23.217Z,6.70
2017-11-07T09:45:23.165Z,6.80
2017-11-07T09:46:23.163Z,6.30
2017-11-07T09:47:23.159Z,6.10
2017-11-07T09:48:23.157Z,5.80
2017-11-07T09:49:23.154Z,6.40
2017-11-07T09:50:23.152Z,6.60
2017-11-07T09:51:23.148Z,6.10
2017-11-07T09:52:23.146Z,6.40
2017-11-07T09:53:23.144Z,5.90
2017-11-07T09:54:23.142Z,7.10
2017-11-07T09:55:23.141Z,6.70
2017-11-07T09:56:23.136Z,6.20
2017-11-07T09:57:23.134Z,6.00
2017-11-07T09:58:23.140Z,5.90
2017-11-07T09:59:23.128Z,6.50
2017-11-07T10:00:23.128Z,5.60
2017-11-07T10:01:23.124Z,5.50
2017-11-07T10:02:23.121Z,5.60
2017-11-07T10:03:23.124Z,10.20
2017-11-07T10:04:23.115Z,12.60
2017-11-07T10:05:23.113Z,12.90
2017-11-07T10:06:23.110Z,8.60
2017-11-07T10:07:23.107Z,6.30
2017-11-07T10:08:23.103Z,6.80
2017-11-07T10:09:23.101Z,3.70
2017-11-07T10:10:23.099Z,3.30
2017-11-07T10:11:23.096Z,3.50
2017-11-07T10:12:23.093Z,3.60
2017-11-07T10:13:23.090Z,4.80
2017-11-07T10:14:23.087Z,4.70
2017-11-07T10:15:23.084Z,3.30
2017-11-07T10:16:23.081Z,3.20
2017-11-07T10:17:23.079Z,4.00
2017-11-07T10:18:23.076Z,4.40
2017-11-07T10:19:23.073Z,4.80
2017-11-07T10:20:23.072Z,4.80
2017-11-07T10:21:23.068Z,5.00
2017-11-07T10:22:23.065Z,5.20
2017-11-07T10:23:23.062Z,5.40
2017-11-07T10:24:23.059Z,5.00
2017-11-07T10:25:23.057Z,5.30
2017-11-07T10:26:23.055Z,5.30
2017-11-07T10:27:23.051Z,5.00
2017-11-07T10:28:23.049Z,7.40
2017-11-07T10:29:23.047Z,5.10
2017-11-07T10:30:23.045Z,5.10
2017-11-07T10:31:23.039Z,4.60
2017-11-07T10:32:23.038Z,5.60
2017-11-07T10:33:23.034Z,6.70
2017-11-07T10:34:23.032Z,5.30
2017-11-07T10:35:23.029Z,5.90
2017-11-07T10:36:23.026Z,10.60
2017-11-07T10:37:23.031Z,7.90
2017-11-07T10:38:23.019Z,5.30
2017-11-07T10:39:23.017Z,4.60
2017-11-07T10:40:23.014Z,4.40
2017-11-07T10:41:23.010Z,4.30
2017-11-07T10:42:23.009Z,4.40
2017-11-07T10:43:23.004Z,5.10
2017-11-07T10:44:23.001Z,4.50
2017-11-07T10:45:22.997Z,4.70
2017-11-07T10:46:22.995Z,5.30
2017-11-07T10:47:22.993Z,24.70
2017-11-07T10:48:22.988Z,8.80
2017-11-07T10:49:22.985Z,4.70
2017-11-07T10:50:22.984Z,5.30
2017-11-07T10:51:22.979Z,6.10
2017-11-07T10:52:22.976Z,6.00
2017-11-07T10:53:22.975Z,6.00
2017-11-07T10:54:22.971Z,6.30
2017-11-07T10:55:22.968Z,6.40
2017-11-07T10:56:22.967Z,5.80
2017-11-07T10:57:22.961Z,5.40
2017-11-07T10:58:22.959Z,5.30
2017-11-07T10:59:23.006Z,8.50
2017-11-07T11:00:22.953Z,8.10
2017-11-07T11:01:22.950Z,6.20
2017-11-07T11:02:22.948Z,6.20
2017-11-07T11:03:22.945Z,6.10
2017-11-07T11:04:22.942Z,6.20
2017-11-07T11:05:22.990Z,7.30
2017-11-07T11:06:22.936Z,5.90
2017-11-07T11:07:22.932Z,6.90
2017-11-07T11:08:22.930Z,7.10
2017-11-07T11:09:22.926Z,6.60
2017-11-07T11:10:22.925Z,6.80
2017-11-07T11:11:22.921Z,6.50
2017-11-07T11:12:22.919Z,6.60
2017-11-07T11:13:22.916Z,6.50
2017-11-07T11:14:22.913Z,7.20
2017-11-07T11:15:22.909Z,6.50
2017-11-07T11:16:22.907Z,7.50
2017-11-07T11:17:22.903Z,7.40
2017-11-07T11:18:22.901Z,7.20
2017-11-07T11:19:22.897Z,7.10
2017-11-07T11:20:22.895Z,7.00
2017-11-07T11:21:22.891Z,7.60
2017-11-07T11:22:22.888Z,8.00
2017-11-07T11:23:22.884Z,7.20
2017-11-07T11:24:22.882Z,7.30
2017-11-07T11:25:22.879Z,7.00
2017-11-07T11:26:22.877Z,7.20
2017-11-07T11:27:22.873Z,7.30
2017-11-07T11:28:22.870Z,7.80
2017-11-07T11:29:22.867Z,7.80
2017-11-07T11:30:22.863Z,7.70
2017-11-07T11:31:22.859Z,8.90
2017-11-07T11:32:22.855Z,8.00
2017-11-07T11:33:22.852Z,7.40
2017-11-07T11:34:22.851Z,7.70
2017-11-07T11:35:22.847Z,8.20
2017-11-07T11:36:22.844Z,8.30
2017-11-07T11:37:22.840Z,14.70
2017-11-07T11:38:22.837Z,8.20
2017-11-07T11:39:22.835Z,7.80
2017-11-07T11:40:22.834Z,7.70
2017-11-07T11:41:22.828Z,7.80
2017-11-07T11:42:22.824Z,7.30
2017-11-07T11:43:22.819Z,6.80
2017-11-07T11:44:22.824Z,7.00
2017-11-07T11:45:22.819Z,7.00
2017-11-07T11:46:22.820Z,6.70
2017-11-07T11:47:22.806Z,7.60
2017-11-07T11:48:22.802Z,7.10
2017-11-07T11:49:22.799Z,6.60
2017-11-07T11:50:22.795Z,6.80
2017-11-07T11:51:22.792Z,7.50
2017-11-07T11:52:22.789Z,7.50
2017-11-07T11:53:22.787Z,7.90
2017-11-07T11:54:22.783Z,7.80
2017-11-07T11:55:22.778Z,6.90
2017-11-07T11:56:22.776Z,6.60
2017-11-07T11:57:22.771Z,6.50
2017-11-07T11:58:22.769Z,7.00
2017-11-07T11:59:22.764Z,8.20
2017-11-07T12:00:22.761Z,9.00
2017-11-07T12:01:22.758Z,7.40
2017-11-07T12:02:22.755Z,10.90
2017-11-07T12:03:22.750Z,6.20
2017-11-07T12:04:22.748Z,6.50
2017-11-07T12:05:22.745Z,7.00
2017-11-07T12:06:22.742Z,6.20
2017-11-07T12:07:22.736Z,6.40
2017-11-07T12:08:22.734Z,6.50
2017-11-07T12:09:22.730Z,6.30
2017-11-07T12:10:22.742Z,6.90
2017-11-07T12:11:22.724Z,6.70
2017-11-07T12:12:22.721Z,6.30
2017-11-07T12:13:22.717Z,5.90
2017-11-07T12:14:22.771Z,5.50
2017-11-07T12:15:22.710Z,6.20
2017-11-07T12:16:22.712Z,6.40
2017-11-07T12:17:22.704Z,6.90
2017-11-07T12:18:22.700Z,6.60
2017-11-07T12:19:22.697Z,6.70
2017-11-07T12:20:22.696Z,6.10
2017-11-07T12:21:22.690Z,6.40
2017-11-07T12:22:22.687Z,6.20
2017-11-07T12:23:22.682Z,6.50
2017-11-07T12:24:22.679Z,6.90
2017-11-07T12:25:22.676Z,6.50
2017-11-07T12:26:22.673Z,5.80
2017-11-07T12:27:22.668Z,6.70
2017-11-07T12:28:22.669Z,6.40
2017-11-07T12:29:22.662Z,6.40
2017-11-07T12:30:22.658Z,7.20
2017-11-07T12:31:22.707Z,7.20
2017-11-07T12:32:22.650Z,7.20
2017-11-07T12:33:22.648Z,8.80
2017-11-07T12:34:22.644Z,6.60
2017-11-07T12:35:22.639Z,6.50
2017-11-07T12:36:22.636Z,5.90
2017-11-07T12:37:22.633Z,5.30
2017-11-07T12:38:22.629Z,6.30
2017-11-07T12:39:22.625Z,6.80
2017-11-07T12:40:22.621Z,6.00
2017-11-07T12:41:22.620Z,6.50
2017-11-07T12:42:22.617Z,6.30
2017-11-07T12:43:22.611Z,6.10
2017-11-07T12:44:22.608Z,5.90
2017-11-07T12:45:22.605Z,5.60
2017-11-07T12:46:22.600Z,6.50
2017-11-07T12:47:22.598Z,6.00
2017-11-07T12:48:22.594Z,6.40
2017-11-07T12:49:22.634Z,5.90
2017-11-07T12:50:22.587Z,5.50
2017-11-07T12:51:22.583Z,5.80
2017-11-07T12:52:22.580Z,5.10
2017-11-07T12:53:22.576Z,5.30
2017-11-07T12:54:22.578Z,6.10
2017-11-07T12:55:22.572Z,6.10
2017-11-07T12:56:22.564Z,5.70
2017-11-07T12:57:22.562Z,6.60
2017-11-07T12:58:22.558Z,5.80
2017-11-07T12:59:22.554Z,5.80
2017-11-07T13:00:22.552Z,5.90
2017-11-07T13:01:22.546Z,5.80
2017-11-07T13:02:22.545Z,5.90
2017-11-07T13:03:22.539Z,6.80
2017-11-07T13:04:22.536Z,6.40
2017-11-07T13:05:22.534Z,6.70
2017-11-07T13:06:22.528Z,6.20
2017-11-07T13:07:22.526Z,5.70
2017-11-07T13:08:22.521Z,5.50